<?xml version="1.0" encoding="UTF-8" standalone="no" ?>
<gpx xmlns="http://www.topografix.com/GPX/1/1" xmlns:xsi="http://www.w3.org/2001/XMLSchema-instance" xsi:schemaLocation="http://www.topografix.com/GPX/1/1 http://www.topografix.com/GPX/1/1/gpx.xsd" version="1.1" creator="VisuGPX - https://www.visugpx.com">
  <metadata>
    <name>Trail Hermes 10km</name>
  </metadata>
  <trk>
    <name><![CDATA[5935513-Trail Hermes]]></name>
    <trkseg>
      <trkpt lat="43.4702" lon="6.76973">
        <ele>97</ele>
        <time>2020-11-26T11:19:10Z</time>
      </trkpt>
      <trkpt lat="43.47024" lon="6.77155">
        <ele>98</ele>
        <time>2020-11-26T11:19:54Z</time>
      </trkpt>
      <trkpt lat="43.47055" lon="6.77368">
        <ele>84</ele>
        <time>2020-11-26T11:20:47Z</time>
      </trkpt>
      <trkpt lat="43.47077" lon="6.77486">
        <ele>81</ele>
        <time>2020-11-26T11:21:16Z</time>
      </trkpt>
      <trkpt lat="43.47112" lon="6.77533">
        <ele>85</ele>
        <time>2020-11-26T11:21:32Z</time>
      </trkpt>
      <trkpt lat="43.47168" lon="6.77541">
        <ele>92</ele>
        <time>2020-11-26T11:21:51Z</time>
      </trkpt>
      <trkpt lat="43.47214" lon="6.77539">
        <ele>98</ele>
        <time>2020-11-26T11:22:07Z</time>
      </trkpt>
      <trkpt lat="43.4727" lon="6.77533">
        <ele>100</ele>
        <time>2020-11-26T11:22:25Z</time>
      </trkpt>
      <trkpt lat="43.47296" lon="6.77597">
        <ele>107</ele>
        <time>2020-11-26T11:22:43Z</time>
      </trkpt>
      <trkpt lat="43.47347" lon="6.77653">
        <ele>114</ele>
        <time>2020-11-26T11:23:05Z</time>
      </trkpt>
      <trkpt lat="43.47369" lon="6.77692">
        <ele>119</ele>
        <time>2020-11-26T11:23:17Z</time>
      </trkpt>
      <trkpt lat="43.4741" lon="6.77649">
        <ele>121</ele>
        <time>2020-11-26T11:23:34Z</time>
      </trkpt>
      <trkpt lat="43.47416" lon="6.77732">
        <ele>130</ele>
        <time>2020-11-26T11:23:54Z</time>
      </trkpt>
      <trkpt lat="43.47436" lon="6.77829">
        <ele>133</ele>
        <time>2020-11-26T11:24:19Z</time>
      </trkpt>
      <trkpt lat="43.47425" lon="6.77921">
        <ele>141</ele>
        <time>2020-11-26T11:24:41Z</time>
      </trkpt>
      <trkpt lat="43.47456" lon="6.77953">
        <ele>138</ele>
        <time>2020-11-26T11:24:54Z</time>
      </trkpt>
      <trkpt lat="43.47478" lon="6.78073">
        <ele>140</ele>
        <time>2020-11-26T11:25:24Z</time>
      </trkpt>
      <trkpt lat="43.47503" lon="6.78093">
        <ele>140</ele>
        <time>2020-11-26T11:25:34Z</time>
      </trkpt>
      <trkpt lat="43.47525" lon="6.78191">
        <ele>137</ele>
        <time>2020-11-26T11:25:59Z</time>
      </trkpt>
      <trkpt lat="43.47575" lon="6.78213">
        <ele>145</ele>
        <time>2020-11-26T11:26:16Z</time>
      </trkpt>
      <trkpt lat="43.47642" lon="6.78198">
        <ele>162</ele>
        <time>2020-11-26T11:26:39Z</time>
      </trkpt>
      <trkpt lat="43.47684" lon="6.78241">
        <ele>159</ele>
        <time>2020-11-26T11:26:56Z</time>
      </trkpt>
      <trkpt lat="43.47745" lon="6.78279">
        <ele>163</ele>
        <time>2020-11-26T11:27:19Z</time>
      </trkpt>
      <trkpt lat="43.47808" lon="6.78301">
        <ele>176</ele>
        <time>2020-11-26T11:27:40Z</time>
      </trkpt>
      <trkpt lat="43.4786" lon="6.78355">
        <ele>178</ele>
        <time>2020-11-26T11:28:02Z</time>
      </trkpt>
      <trkpt lat="43.47911" lon="6.78382">
        <ele>190</ele>
        <time>2020-11-26T11:28:20Z</time>
      </trkpt>
      <trkpt lat="43.47936" lon="6.78449">
        <ele>193</ele>
        <time>2020-11-26T11:28:38Z</time>
      </trkpt>
      <trkpt lat="43.4795" lon="6.78541">
        <ele>193</ele>
        <time>2020-11-26T11:29:01Z</time>
      </trkpt>
      <trkpt lat="43.47997" lon="6.78631">
        <ele>209</ele>
        <time>2020-11-26T11:29:28Z</time>
      </trkpt>
      <trkpt lat="43.48009" lon="6.78691">
        <ele>214</ele>
        <time>2020-11-26T11:29:43Z</time>
      </trkpt>
      <trkpt lat="43.47997" lon="6.78784">
        <ele>213</ele>
        <time>2020-11-26T11:30:06Z</time>
      </trkpt>
      <trkpt lat="43.48009" lon="6.78831">
        <ele>218</ele>
        <time>2020-11-26T11:30:18Z</time>
      </trkpt>
      <trkpt lat="43.48054" lon="6.78951">
        <ele>239</ele>
        <time>2020-11-26T11:30:51Z</time>
      </trkpt>
      <trkpt lat="43.48014" lon="6.78988">
        <ele>231</ele>
        <time>2020-11-26T11:31:07Z</time>
      </trkpt>
      <trkpt lat="43.47989" lon="6.79028">
        <ele>230</ele>
        <time>2020-11-26T11:31:20Z</time>
      </trkpt>
      <trkpt lat="43.48012" lon="6.79125">
        <ele>240</ele>
        <time>2020-11-26T11:31:44Z</time>
      </trkpt>
      <trkpt lat="43.48061" lon="6.79065">
        <ele>249</ele>
        <time>2020-11-26T11:32:06Z</time>
      </trkpt>
      <trkpt lat="43.48128" lon="6.79067">
        <ele>263</ele>
        <time>2020-11-26T11:32:28Z</time>
      </trkpt>
      <trkpt lat="43.48179" lon="6.79088">
        <ele>271</ele>
        <time>2020-11-26T11:32:46Z</time>
      </trkpt>
      <trkpt lat="43.48241" lon="6.79088">
        <ele>283</ele>
        <time>2020-11-26T11:33:07Z</time>
      </trkpt>
      <trkpt lat="43.48304" lon="6.79054">
        <ele>295</ele>
        <time>2020-11-26T11:33:29Z</time>
      </trkpt>
      <trkpt lat="43.4836" lon="6.79022">
        <ele>308</ele>
        <time>2020-11-26T11:33:50Z</time>
      </trkpt>
      <trkpt lat="43.4842" lon="6.78996">
        <ele>319</ele>
        <time>2020-11-26T11:34:11Z</time>
      </trkpt>
      <trkpt lat="43.48486" lon="6.78981">
        <ele>332</ele>
        <time>2020-11-26T11:34:33Z</time>
      </trkpt>
      <trkpt lat="43.48584" lon="6.7896">
        <ele>346</ele>
        <time>2020-11-26T11:35:06Z</time>
      </trkpt>
      <trkpt lat="43.48556" lon="6.79039">
        <ele>345</ele>
        <time>2020-11-26T11:35:27Z</time>
      </trkpt>
      <trkpt lat="43.4856" lon="6.79151">
        <ele>349</ele>
        <time>2020-11-26T11:35:55Z</time>
      </trkpt>
      <trkpt lat="43.48599" lon="6.79191">
        <ele>360</ele>
        <time>2020-11-26T11:36:11Z</time>
      </trkpt>
      <trkpt lat="43.48637" lon="6.79202">
        <ele>366</ele>
        <time>2020-11-26T11:36:24Z</time>
      </trkpt>
      <trkpt lat="43.48662" lon="6.79243">
        <ele>368</ele>
        <time>2020-11-26T11:36:37Z</time>
      </trkpt>
      <trkpt lat="43.48694" lon="6.79236">
        <ele>369</ele>
        <time>2020-11-26T11:36:47Z</time>
      </trkpt>
      <trkpt lat="43.4871" lon="6.79187">
        <ele>374</ele>
        <time>2020-11-26T11:37:00Z</time>
      </trkpt>
      <trkpt lat="43.48741" lon="6.79151">
        <ele>376</ele>
        <time>2020-11-26T11:37:14Z</time>
      </trkpt>
      <trkpt lat="43.48764" lon="6.79166">
        <ele>379</ele>
        <time>2020-11-26T11:37:22Z</time>
      </trkpt>
      <trkpt lat="43.48785" lon="6.79213">
        <ele>377</ele>
        <time>2020-11-26T11:37:36Z</time>
      </trkpt>
      <trkpt lat="43.48823" lon="6.79286">
        <ele>374</ele>
        <time>2020-11-26T11:37:58Z</time>
      </trkpt>
      <trkpt lat="43.48822" lon="6.79365">
        <ele>366</ele>
        <time>2020-11-26T11:38:17Z</time>
      </trkpt>
      <trkpt lat="43.48813" lon="6.79447">
        <ele>356</ele>
        <time>2020-11-26T11:38:37Z</time>
      </trkpt>
      <trkpt lat="43.48791" lon="6.79556">
        <ele>346</ele>
        <time>2020-11-26T11:39:04Z</time>
      </trkpt>
      <trkpt lat="43.48791" lon="6.79425">
        <ele>349</ele>
        <time>2020-11-26T11:39:36Z</time>
      </trkpt>
      <trkpt lat="43.48785" lon="6.79376">
        <ele>352</ele>
        <time>2020-11-26T11:39:48Z</time>
      </trkpt>
      <trkpt lat="43.48774" lon="6.79316">
        <ele>357</ele>
        <time>2020-11-26T11:40:03Z</time>
      </trkpt>
      <trkpt lat="43.48752" lon="6.79303">
        <ele>354</ele>
        <time>2020-11-26T11:40:11Z</time>
      </trkpt>
      <trkpt lat="43.48735" lon="6.79374">
        <ele>339</ele>
        <time>2020-11-26T11:40:29Z</time>
      </trkpt>
      <trkpt lat="43.48671" lon="6.79404">
        <ele>325</ele>
        <time>2020-11-26T11:40:52Z</time>
      </trkpt>
      <trkpt lat="43.48624" lon="6.79402">
        <ele>316</ele>
        <time>2020-11-26T11:41:07Z</time>
      </trkpt>
      <trkpt lat="43.48574" lon="6.79382">
        <ele>311</ele>
        <time>2020-11-26T11:41:25Z</time>
      </trkpt>
      <trkpt lat="43.48537" lon="6.79322">
        <ele>317</ele>
        <time>2020-11-26T11:41:44Z</time>
      </trkpt>
      <trkpt lat="43.48467" lon="6.79314">
        <ele>292</ele>
        <time>2020-11-26T11:42:07Z</time>
      </trkpt>
      <trkpt lat="43.48456" lon="6.79252">
        <ele>293</ele>
        <time>2020-11-26T11:42:23Z</time>
      </trkpt>
      <trkpt lat="43.48445" lon="6.79194">
        <ele>290</ele>
        <time>2020-11-26T11:42:37Z</time>
      </trkpt>
      <trkpt lat="43.48439" lon="6.79061">
        <ele>304</ele>
        <time>2020-11-26T11:43:09Z</time>
      </trkpt>
      <trkpt lat="43.48398" lon="6.79082">
        <ele>289</ele>
        <time>2020-11-26T11:43:24Z</time>
      </trkpt>
      <trkpt lat="43.48367" lon="6.79086">
        <ele>287</ele>
        <time>2020-11-26T11:43:34Z</time>
      </trkpt>
      <trkpt lat="43.48338" lon="6.79114">
        <ele>276</ele>
        <time>2020-11-26T11:43:46Z</time>
      </trkpt>
      <trkpt lat="43.48305" lon="6.79123">
        <ele>272</ele>
        <time>2020-11-26T11:43:57Z</time>
      </trkpt>
      <trkpt lat="43.48261" lon="6.79131">
        <ele>268</ele>
        <time>2020-11-26T11:44:12Z</time>
      </trkpt>
      <trkpt lat="43.4819" lon="6.79138">
        <ele>257</ele>
        <time>2020-11-26T11:44:36Z</time>
      </trkpt>
      <trkpt lat="43.48138" lon="6.79121">
        <ele>255</ele>
        <time>2020-11-26T11:44:54Z</time>
      </trkpt>
      <trkpt lat="43.48103" lon="6.7911">
        <ele>252</ele>
        <time>2020-11-26T11:45:06Z</time>
      </trkpt>
      <trkpt lat="43.48036" lon="6.79136">
        <ele>241</ele>
        <time>2020-11-26T11:45:29Z</time>
      </trkpt>
      <trkpt lat="43.47972" lon="6.79123">
        <ele>236</ele>
        <time>2020-11-26T11:45:50Z</time>
      </trkpt>
      <trkpt lat="43.47911" lon="6.79133">
        <ele>232</ele>
        <time>2020-11-26T11:46:11Z</time>
      </trkpt>
      <trkpt lat="43.47872" lon="6.79112">
        <ele>225</ele>
        <time>2020-11-26T11:46:25Z</time>
      </trkpt>
      <trkpt lat="43.47824" lon="6.79099">
        <ele>219</ele>
        <time>2020-11-26T11:46:41Z</time>
      </trkpt>
      <trkpt lat="43.47773" lon="6.79076">
        <ele>217</ele>
        <time>2020-11-26T11:46:59Z</time>
      </trkpt>
      <trkpt lat="43.47738" lon="6.79037">
        <ele>211</ele>
        <time>2020-11-26T11:47:14Z</time>
      </trkpt>
      <trkpt lat="43.47723" lon="6.78992">
        <ele>204</ele>
        <time>2020-11-26T11:47:26Z</time>
      </trkpt>
      <trkpt lat="43.47699" lon="6.78934">
        <ele>202</ele>
        <time>2020-11-26T11:47:42Z</time>
      </trkpt>
      <trkpt lat="43.47703" lon="6.7888">
        <ele>198</ele>
        <time>2020-11-26T11:47:55Z</time>
      </trkpt>
      <trkpt lat="43.47715" lon="6.78816">
        <ele>191</ele>
        <time>2020-11-26T11:48:11Z</time>
      </trkpt>
      <trkpt lat="43.47712" lon="6.78745">
        <ele>190</ele>
        <time>2020-11-26T11:48:29Z</time>
      </trkpt>
      <trkpt lat="43.47706" lon="6.78694">
        <ele>189</ele>
        <time>2020-11-26T11:48:41Z</time>
      </trkpt>
      <trkpt lat="43.47706" lon="6.78636">
        <ele>182</ele>
        <time>2020-11-26T11:48:55Z</time>
      </trkpt>
      <trkpt lat="43.47699" lon="6.78571">
        <ele>174</ele>
        <time>2020-11-26T11:49:11Z</time>
      </trkpt>
      <trkpt lat="43.47668" lon="6.78524">
        <ele>171</ele>
        <time>2020-11-26T11:49:26Z</time>
      </trkpt>
      <trkpt lat="43.47623" lon="6.785">
        <ele>165</ele>
        <time>2020-11-26T11:49:43Z</time>
      </trkpt>
      <trkpt lat="43.47569" lon="6.78496">
        <ele>163</ele>
        <time>2020-11-26T11:50:01Z</time>
      </trkpt>
      <trkpt lat="43.47541" lon="6.78526">
        <ele>168</ele>
        <time>2020-11-26T11:50:12Z</time>
      </trkpt>
      <trkpt lat="43.47474" lon="6.78526">
        <ele>159</ele>
        <time>2020-11-26T11:50:35Z</time>
      </trkpt>
      <trkpt lat="43.47411" lon="6.78567">
        <ele>155</ele>
        <time>2020-11-26T11:50:58Z</time>
      </trkpt>
      <trkpt lat="43.47413" lon="6.78629">
        <ele>156</ele>
        <time>2020-11-26T11:51:13Z</time>
      </trkpt>
      <trkpt lat="43.47416" lon="6.78711">
        <ele>153</ele>
        <time>2020-11-26T11:51:33Z</time>
      </trkpt>
      <trkpt lat="43.47418" lon="6.78745">
        <ele>153</ele>
        <time>2020-11-26T11:51:41Z</time>
      </trkpt>
      <trkpt lat="43.47393" lon="6.78773">
        <ele>149</ele>
        <time>2020-11-26T11:51:52Z</time>
      </trkpt>
      <trkpt lat="43.47444" lon="6.78865">
        <ele>155</ele>
        <time>2020-11-26T11:52:20Z</time>
      </trkpt>
      <trkpt lat="43.47386" lon="6.78891">
        <ele>143</ele>
        <time>2020-11-26T11:52:40Z</time>
      </trkpt>
      <trkpt lat="43.4736" lon="6.78949">
        <ele>137</ele>
        <time>2020-11-26T11:52:57Z</time>
      </trkpt>
      <trkpt lat="43.4736" lon="6.79013">
        <ele>139</ele>
        <time>2020-11-26T11:53:12Z</time>
      </trkpt>
      <trkpt lat="43.47428" lon="6.79114">
        <ele>159</ele>
        <time>2020-11-26T11:53:46Z</time>
      </trkpt>
      <trkpt lat="43.47382" lon="6.79151">
        <ele>151</ele>
        <time>2020-11-26T11:54:03Z</time>
      </trkpt>
      <trkpt lat="43.47355" lon="6.79149">
        <ele>145</ele>
        <time>2020-11-26T11:54:12Z</time>
      </trkpt>
      <trkpt lat="43.47351" lon="6.79206">
        <ele>155</ele>
        <time>2020-11-26T11:54:26Z</time>
      </trkpt>
      <trkpt lat="43.47256" lon="6.79292">
        <ele>153</ele>
        <time>2020-11-26T11:55:04Z</time>
      </trkpt>
      <trkpt lat="43.4721" lon="6.79245">
        <ele>158</ele>
        <time>2020-11-26T11:55:23Z</time>
      </trkpt>
      <trkpt lat="43.47212" lon="6.79185">
        <ele>149</ele>
        <time>2020-11-26T11:55:38Z</time>
      </trkpt>
      <trkpt lat="43.47206" lon="6.79073">
        <ele>131</ele>
        <time>2020-11-26T11:56:05Z</time>
      </trkpt>
      <trkpt lat="43.4717" lon="6.79123">
        <ele>141</ele>
        <time>2020-11-26T11:56:22Z</time>
      </trkpt>
      <trkpt lat="43.47129" lon="6.79151">
        <ele>149</ele>
        <time>2020-11-26T11:56:37Z</time>
      </trkpt>
      <trkpt lat="43.47098" lon="6.79103">
        <ele>140</ele>
        <time>2020-11-26T11:56:53Z</time>
      </trkpt>
      <trkpt lat="43.47066" lon="6.79067">
        <ele>135</ele>
        <time>2020-11-26T11:57:07Z</time>
      </trkpt>
      <trkpt lat="43.47053" lon="6.7899">
        <ele>124</ele>
        <time>2020-11-26T11:57:26Z</time>
      </trkpt>
      <trkpt lat="43.47017" lon="6.78973">
        <ele>125</ele>
        <time>2020-11-26T11:57:39Z</time>
      </trkpt>
      <trkpt lat="43.46963" lon="6.78945">
        <ele>116</ele>
        <time>2020-11-26T11:57:58Z</time>
      </trkpt>
      <trkpt lat="43.46893" lon="6.78962">
        <ele>112</ele>
        <time>2020-11-26T11:58:22Z</time>
      </trkpt>
      <trkpt lat="43.46873" lon="6.79011">
        <ele>114</ele>
        <time>2020-11-26T11:58:35Z</time>
      </trkpt>
      <trkpt lat="43.46857" lon="6.79091">
        <ele>112</ele>
        <time>2020-11-26T11:58:55Z</time>
      </trkpt>
      <trkpt lat="43.46899" lon="6.79144">
        <ele>120</ele>
        <time>2020-11-26T11:59:14Z</time>
      </trkpt>
      <trkpt lat="43.46869" lon="6.79181">
        <ele>113</ele>
        <time>2020-11-26T11:59:28Z</time>
      </trkpt>
      <trkpt lat="43.46837" lon="6.7926">
        <ele>107</ele>
        <time>2020-11-26T11:59:50Z</time>
      </trkpt>
      <trkpt lat="43.46801" lon="6.79224">
        <ele>105</ele>
        <time>2020-11-26T12:00:04Z</time>
      </trkpt>
      <trkpt lat="43.46773" lon="6.79174">
        <ele>105</ele>
        <time>2020-11-26T12:00:20Z</time>
      </trkpt>
      <trkpt lat="43.46754" lon="6.79106">
        <ele>104</ele>
        <time>2020-11-26T12:00:37Z</time>
      </trkpt>
      <trkpt lat="43.46732" lon="6.7905">
        <ele>105</ele>
        <time>2020-11-26T12:00:53Z</time>
      </trkpt>
      <trkpt lat="43.46748" lon="6.78968">
        <ele>109</ele>
        <time>2020-11-26T12:01:13Z</time>
      </trkpt>
      <trkpt lat="43.46773" lon="6.78927">
        <ele>107</ele>
        <time>2020-11-26T12:01:26Z</time>
      </trkpt>
      <trkpt lat="43.4682" lon="6.7887">
        <ele>96</ele>
        <time>2020-11-26T12:01:47Z</time>
      </trkpt>
      <trkpt lat="43.46821" lon="6.78794">
        <ele>93</ele>
        <time>2020-11-26T12:02:06Z</time>
      </trkpt>
      <trkpt lat="43.46809" lon="6.78719">
        <ele>91</ele>
        <time>2020-11-26T12:02:24Z</time>
      </trkpt>
      <trkpt lat="43.46784" lon="6.78651">
        <ele>89</ele>
        <time>2020-11-26T12:02:43Z</time>
      </trkpt>
      <trkpt lat="43.46749" lon="6.78649">
        <ele>90</ele>
        <time>2020-11-26T12:02:54Z</time>
      </trkpt>
      <trkpt lat="43.46764" lon="6.78599">
        <ele>89</ele>
        <time>2020-11-26T12:03:07Z</time>
      </trkpt>
      <trkpt lat="43.46781" lon="6.78531">
        <ele>88</ele>
        <time>2020-11-26T12:03:25Z</time>
      </trkpt>
      <trkpt lat="43.46768" lon="6.78443">
        <ele>84</ele>
        <time>2020-11-26T12:03:47Z</time>
      </trkpt>
      <trkpt lat="43.46773" lon="6.78374">
        <ele>81</ele>
        <time>2020-11-26T12:04:03Z</time>
      </trkpt>
      <trkpt lat="43.46764" lon="6.78333">
        <ele>79</ele>
        <time>2020-11-26T12:04:14Z</time>
      </trkpt>
      <trkpt lat="43.46753" lon="6.78269">
        <ele>77</ele>
        <time>2020-11-26T12:04:30Z</time>
      </trkpt>
      <trkpt lat="43.46723" lon="6.78202">
        <ele>77</ele>
        <time>2020-11-26T12:04:49Z</time>
      </trkpt>
      <trkpt lat="43.46681" lon="6.78183">
        <ele>76</ele>
        <time>2020-11-26T12:05:04Z</time>
      </trkpt>
      <trkpt lat="43.46616" lon="6.78127">
        <ele>77</ele>
        <time>2020-11-26T12:05:29Z</time>
      </trkpt>
      <trkpt lat="43.46672" lon="6.7814">
        <ele>78</ele>
        <time>2020-11-26T12:05:48Z</time>
      </trkpt>
      <trkpt lat="43.46712" lon="6.78155">
        <ele>78</ele>
        <time>2020-11-26T12:06:02Z</time>
      </trkpt>
      <trkpt lat="43.46754" lon="6.78123">
        <ele>85</ele>
        <time>2020-11-26T12:06:18Z</time>
      </trkpt>
      <trkpt lat="43.4681" lon="6.78095">
        <ele>87</ele>
        <time>2020-11-26T12:06:38Z</time>
      </trkpt>
      <trkpt lat="43.46843" lon="6.78082">
        <ele>86</ele>
        <time>2020-11-26T12:06:49Z</time>
      </trkpt>
      <trkpt lat="43.46897" lon="6.78035">
        <ele>88</ele>
        <time>2020-11-26T12:07:11Z</time>
      </trkpt>
      <trkpt lat="43.4691" lon="6.77981">
        <ele>93</ele>
        <time>2020-11-26T12:07:24Z</time>
      </trkpt>
      <trkpt lat="43.46857" lon="6.77975">
        <ele>93</ele>
        <time>2020-11-26T12:07:42Z</time>
      </trkpt>
      <trkpt lat="43.46868" lon="6.77928">
        <ele>96</ele>
        <time>2020-11-26T12:07:54Z</time>
      </trkpt>
      <trkpt lat="43.46874" lon="6.77827">
        <ele>103</ele>
        <time>2020-11-26T12:08:19Z</time>
      </trkpt>
      <trkpt lat="43.46844" lon="6.77812">
        <ele>101</ele>
        <time>2020-11-26T12:08:29Z</time>
      </trkpt>
      <trkpt lat="43.46857" lon="6.77743">
        <ele>105</ele>
        <time>2020-11-26T12:08:46Z</time>
      </trkpt>
      <trkpt lat="43.46849" lon="6.77694">
        <ele>108</ele>
        <time>2020-11-26T12:08:59Z</time>
      </trkpt>
      <trkpt lat="43.46837" lon="6.7764">
        <ele>111</ele>
        <time>2020-11-26T12:09:12Z</time>
      </trkpt>
      <trkpt lat="43.46843" lon="6.77591">
        <ele>112</ele>
        <time>2020-11-26T12:09:24Z</time>
      </trkpt>
      <trkpt lat="43.46885" lon="6.77445">
        <ele>111</ele>
        <time>2020-11-26T12:10:02Z</time>
      </trkpt>
      <trkpt lat="43.46911" lon="6.7737">
        <ele>111</ele>
        <time>2020-11-26T12:10:22Z</time>
      </trkpt>
      <trkpt lat="43.46919" lon="6.77301">
        <ele>104</ele>
        <time>2020-11-26T12:10:39Z</time>
      </trkpt>
      <trkpt lat="43.46932" lon="6.77207">
        <ele>93</ele>
        <time>2020-11-26T12:11:03Z</time>
      </trkpt>
      <trkpt lat="43.46975" lon="6.77095">
        <ele>96</ele>
        <time>2020-11-26T12:11:33Z</time>
      </trkpt>
      <trkpt lat="43.47021" lon="6.76974">
        <ele>97</ele>
        <time>2020-11-26T12:12:06Z</time>
      </trkpt>
    </trkseg>
  </trk>
</gpx>